sensor_id;sensor_type;location;lat;lon;timestamp;pressure;altitude;pressure_sealevel;temperature;humidity
73016;BME280;61893;50.074;14.440;2024-03-17T00:01:15;99063.16;;;4.66;78.90
73016;BME280;61893;50.074;14.440;2024-03-17T00:04:03;99056.97;;;4.67;78.98
73016;BME280;61893;50.074;14.440;2024-03-17T00:06:30;99058.22;;;4.74;78.50
73016;BME280;61893;50.074;14.440;2024-03-17T00:09:12;99058.22;;;4.61;78.72
73016;BME280;61893;50.074;14.440;2024-03-17T00:11:39;99053.34;;;4.68;79.59
73016;BME280;61893;50.074;14.440;2024-03-17T00:14:07;99051.34;;;4.59;79.89
73016;BME280;61893;50.074;14.440;2024-03-17T00:16:47;99055.72;;;4.45;81.50
73016;BME280;61893;50.074;14.440;2024-03-17T00:19:14;99064.38;;;4.47;81.72
73016;BME280;61893;50.074;14.440;2024-03-17T00:21:43;99063.69;;;4.31;81.48
73016;BME280;61893;50.074;14.440;2024-03-17T00:24:08;99055.38;;;4.37;81.69
73016;BME280;61893;50.074;14.440;2024-03-17T00:26:35;99056.00;;;4.28;82.79
73016;BME280;61893;50.074;14.440;2024-03-17T00:29:01;99059.97;;;4.21;82.63
73016;BME280;61893;50.074;14.440;2024-03-17T00:31:28;99059.88;;;4.22;83.25
73016;BME280;61893;50.074;14.440;2024-03-17T00:33:54;99067.31;;;4.16;83.94
73016;BME280;61893;50.074;14.440;2024-03-17T00:36:20;99060.19;;;4.18;83.63
73016;BME280;61893;50.074;14.440;2024-03-17T00:38:46;99068.97;;;4.04;84.24
73016;BME280;61893;50.074;14.440;2024-03-17T00:41:11;99066.41;;;4.02;84.69
73016;BME280;61893;50.074;14.440;2024-03-17T00:43:37;99066.59;;;3.99;84.41
73016;BME280;61893;50.074;14.440;2024-03-17T00:46:03;99059.00;;;3.95;85.08
73016;BME280;61893;50.074;14.440;2024-03-17T00:48:29;99058.47;;;3.90;84.96
73016;BME280;61893;50.074;14.440;2024-03-17T00:50:57;99056.88;;;3.87;85.65
73016;BME280;61893;50.074;14.440;2024-03-17T00:53:28;99055.06;;;3.88;85.48
73016;BME280;61893;50.074;14.440;2024-03-17T00:55:57;99055.28;;;3.84;85.24
73016;BME280;61893;50.074;14.440;2024-03-17T00:58:26;99049.56;;;3.78;86.31
73016;BME280;61893;50.074;14.440;2024-03-17T01:00:52;99048.03;;;3.74;86.38
73016;BME280;61893;50.074;14.440;2024-03-17T01:03:19;99055.19;;;3.72;86.19
73016;BME280;61893;50.074;14.440;2024-03-17T01:05:47;99060.38;;;3.73;85.93
73016;BME280;61893;50.074;14.440;2024-03-17T01:08:17;99046.25;;;3.74;85.38
73016;BME280;61893;50.074;14.440;2024-03-17T01:10:43;99054.53;;;3.68;86.11
73016;BME280;61893;50.074;14.440;2024-03-17T01:13:10;99060.47;;;3.57;86.56
73016;BME280;61893;50.074;14.440;2024-03-17T01:15:36;99052.50;;;3.59;85.59
73016;BME280;61893;50.074;14.440;2024-03-17T01:18:04;99056.44;;;3.52;85.99
73016;BME280;61893;50.074;14.440;2024-03-17T01:20:30;99045.25;;;3.63;85.69
73016;BME280;61893;50.074;14.440;2024-03-17T01:22:56;99057.09;;;3.55;86.44
73016;BME280;61893;50.074;14.440;2024-03-17T01:25:22;99052.69;;;3.56;85.58
73016;BME280;61893;50.074;14.440;2024-03-17T01:27:48;99060.66;;;3.54;86.06
73016;BME280;61893;50.074;14.440;2024-03-17T01:30:13;99054.66;;;3.52;85.59
73016;BME280;61893;50.074;14.440;2024-03-17T01:32:42;99062.56;;;3.52;85.65
73016;BME280;61893;50.074;14.440;2024-03-17T01:35:10;99053.06;;;3.50;84.97
73016;BME280;61893;50.074;14.440;2024-03-17T01:37:38;99056.09;;;3.44;85.89
73016;BME280;61893;50.074;14.440;2024-03-17T01:40:07;99047.69;;;3.37;85.81
73016;BME280;61893;50.074;14.440;2024-03-17T01:42:40;99052.97;;;3.37;85.84
73016;BME280;61893;50.074;14.440;2024-03-17T01:47:45;99050.53;;;3.34;86.94
73016;BME280;61893;50.074;14.440;2024-03-17T01:50:19;99041.59;;;3.22;86.92
73016;BME280;61893;50.074;14.440;2024-03-17T01:53:19;99039.91;;;3.21;87.30
73016;BME280;61893;50.074;14.440;2024-03-17T01:56:22;99043.84;;;3.14;87.28
73016;BME280;61893;50.074;14.440;2024-03-17T01:58:49;99042.16;;;3.13;87.59
73016;BME280;61893;50.074;14.440;2024-03-17T02:01:16;99037.88;;;3.12;86.77
73016;BME280;61893;50.074;14.440;2024-03-17T02:03:45;99042.81;;;3.16;86.86
73016;BME280;61893;50.074;14.440;2024-03-17T02:06:10;99045.19;;;3.07;87.88
73016;BME280;61893;50.074;14.440;2024-03-17T02:08:55;99041.78;;;3.05;86.71
73016;BME280;61893;50.074;14.440;2024-03-17T02:11:27;99046.38;;;3.01;87.60
73016;BME280;61893;50.074;14.440;2024-03-17T02:13:54;99041.69;;;3.06;87.36
73016;BME280;61893;50.074;14.440;2024-03-17T02:16:37;99043.38;;;3.07;87.38
73016;BME280;61893;50.074;14.440;2024-03-17T02:19:06;99048.19;;;3.01;87.79
73016;BME280;61893;50.074;14.440;2024-03-17T02:21:35;99053.63;;;2.98;87.58
73016;BME280;61893;50.074;14.440;2024-03-17T02:24:03;99041.84;;;2.89;88.19
73016;BME280;61893;50.074;14.440;2024-03-17T02:26:29;99048.34;;;2.83;89.05
73016;BME280;61893;50.074;14.440;2024-03-17T02:29:14;99045.22;;;2.91;88.89
73016;BME280;61893;50.074;14.440;2024-03-17T02:31:40;99051.03;;;2.82;88.93
73016;BME280;61893;50.074;14.440;2024-03-17T02:34:08;99055.72;;;2.77;88.62
73016;BME280;61893;50.074;14.440;2024-03-17T02:36:33;99056.66;;;2.76;89.69
73016;BME280;61893;50.074;14.440;2024-03-17T02:39:02;99062.09;;;2.73;90.11
73016;BME280;61893;50.074;14.440;2024-03-17T02:41:52;99056.19;;;2.69;90.66
73016;BME280;61893;50.074;14.440;2024-03-17T02:44:38;99056.88;;;2.57;91.24
73016;BME280;61893;50.074;14.440;2024-03-17T02:47:13;99059.16;;;2.63;91.08
73016;BME280;61893;50.074;14.440;2024-03-17T02:49:44;99063.50;;;2.64;90.47
73016;BME280;61893;50.074;14.440;2024-03-17T02:52:31;99049.84;;;2.57;91.12
73016;BME280;61893;50.074;14.440;2024-03-17T02:55:37;99053.19;;;2.45;91.46
73016;BME280;61893;50.074;14.440;2024-03-17T02:58:10;99049.47;;;2.49;91.72
73016;BME280;61893;50.074;14.440;2024-03-17T03:01:14;99049.47;;;2.49;91.80
73016;BME280;61893;50.074;14.440;2024-03-17T03:04:37;99052.66;;;2.54;90.75
73016;BME280;61893;50.074;14.440;2024-03-17T03:07:11;99048.94;;;2.58;89.58
73016;BME280;61893;50.074;14.440;2024-03-17T03:10:06;99046.69;;;2.66;88.85
73016;BME280;61893;50.074;14.440;2024-03-17T03:12:36;99044.06;;;2.66;88.29
73016;BME280;61893;50.074;14.440;2024-03-17T03:15:01;99038.91;;;2.65;88.01
73016;BME280;61893;50.074;14.440;2024-03-17T03:18:08;99047.06;;;2.75;87.20
73016;BME280;61893;50.074;14.440;2024-03-17T03:20:39;99046.63;;;2.82;86.97
73016;BME280;61893;50.074;14.440;2024-03-17T03:23:36;99049.38;;;2.81;86.53
73016;BME280;61893;50.074;14.440;2024-03-17T03:26:04;99047.66;;;2.80;86.67
73016;BME280;61893;50.074;14.440;2024-03-17T03:28:39;99051.69;;;2.85;86.14
73016;BME280;61893;50.074;14.440;2024-03-17T03:31:05;99050.59;;;2.89;85.98
73016;BME280;61893;50.074;14.440;2024-03-17T03:33:32;99057.28;;;2.95;85.60
73016;BME280;61893;50.074;14.440;2024-03-17T03:35:58;99051.34;;;2.91;85.47
73016;BME280;61893;50.074;14.440;2024-03-17T03:38:28;99043.38;;;2.93;85.26
73016;BME280;61893;50.074;14.440;2024-03-17T03:40:54;99043.75;;;2.87;86.11
73016;BME280;61893;50.074;14.440;2024-03-17T03:43:38;99042.88;;;2.72;86.87
73016;BME280;61893;50.074;14.440;2024-03-17T03:46:09;99039.19;;;2.75;87.98
73016;BME280;61893;50.074;14.440;2024-03-17T03:48:38;99051.97;;;2.66;88.54
73016;BME280;61893;50.074;14.440;2024-03-17T03:51:13;99041.53;;;2.65;89.21
73016;BME280;61893;50.074;14.440;2024-03-17T03:53:43;99048.13;;;2.42;89.91
73016;BME280;61893;50.074;14.440;2024-03-17T03:56:32;99041.75;;;2.46;90.79
73016;BME280;61893;50.074;14.440;2024-03-17T03:58:59;99053.38;;;2.42;90.91
73016;BME280;61893;50.074;14.440;2024-03-17T04:01:24;99040.06;;;2.45;90.98
73016;BME280;61893;50.074;14.440;2024-03-17T04:03:55;99047.09;;;2.44;90.98
73016;BME280;61893;50.074;14.440;2024-03-17T04:14:03;99043.06;;;2.23;92.66
73016;BME280;61893;50.074;14.440;2024-03-17T04:16:30;99040.38;;;2.09;93.16
73016;BME280;61893;50.074;14.440;2024-03-17T04:21:32;99043.78;;;2.11;93.52
73016;BME280;61893;50.074;14.440;2024-03-17T04:24:00;99045.31;;;2.15;93.47
73016;BME280;61893;50.074;14.440;2024-03-17T04:26:27;99055.03;;;2.13;93.58
73016;BME280;61893;50.074;14.440;2024-03-17T04:28:53;99051.06;;;2.06;94.09
73016;BME280;61893;50.074;14.440;2024-03-17T04:31:19;99052.06;;;2.03;94.47
73016;BME280;61893;50.074;14.440;2024-03-17T04:33:45;99047.69;;;2.03;94.40
73016;BME280;61893;50.074;14.440;2024-03-17T04:36:11;99054.28;;;1.95;94.92
73016;BME280;61893;50.074;14.440;2024-03-17T04:38:39;99053.41;;;1.94;95.12
73016;BME280;61893;50.074;14.440;2024-03-17T04:41:04;99053.19;;;1.99;95.03
73016;BME280;61893;50.074;14.440;2024-03-17T04:43:31;99057.31;;;2.03;94.78
73016;BME280;61893;50.074;14.440;2024-03-17T04:46:01;99052.94;;;2.03;94.40
73016;BME280;61893;50.074;14.440;2024-03-17T04:48:30;99056.81;;;1.96;94.88
73016;BME280;61893;50.074;14.440;2024-03-17T04:51:06;99045.06;;;1.88;95.14
73016;BME280;61893;50.074;14.440;2024-03-17T04:53:46;99058.00;;;1.91;95.55
73016;BME280;61893;50.074;14.440;2024-03-17T04:56:15;99056.66;;;1.84;95.86
73016;BME280;61893;50.074;14.440;2024-03-17T04:58:41;99059.19;;;1.85;96.69
73016;BME280;61893;50.074;14.440;2024-03-17T05:01:12;99050.66;;;1.82;96.46
73016;BME280;61893;50.074;14.440;2024-03-17T05:03:53;99058.09;;;1.73;96.73
73016;BME280;61893;50.074;14.440;2024-03-17T05:06:51;99064.44;;;1.69;97.13
73016;BME280;61893;50.074;14.440;2024-03-17T05:09:42;99062.25;;;1.77;96.35
73016;BME280;61893;50.074;14.440;2024-03-17T05:12:25;99060.72;;;1.73;97.05
73016;BME280;61893;50.074;14.440;2024-03-17T05:15:15;99063.28;;;1.75;96.71
73016;BME280;61893;50.074;14.440;2024-03-17T05:18:27;99076.78;;;1.67;97.16
73016;BME280;61893;50.074;14.440;2024-03-17T05:23:28;99080.84;;;1.73;96.78
73016;BME280;61893;50.074;14.440;2024-03-17T05:26:19;99072.56;;;1.65;97.09
73016;BME280;61893;50.074;14.440;2024-03-17T05:28:45;99072.72;;;1.62;97.45
73016;BME280;61893;50.074;14.440;2024-03-17T05:31:11;99086.28;;;1.70;96.67
73016;BME280;61893;50.074;14.440;2024-03-17T05:33:41;99084.25;;;1.75;96.63
73016;BME280;61893;50.074;14.440;2024-03-17T05:36:07;99092.28;;;1.88;96.69
73016;BME280;61893;50.074;14.440;2024-03-17T05:38:33;99091.97;;;1.78;96.28
73016;BME280;61893;50.074;14.440;2024-03-17T05:41:00;99081.44;;;1.94;95.51
73016;BME280;61893;50.074;14.440;2024-03-17T05:43:31;99096.03;;;1.84;95.99
73016;BME280;61893;50.074;14.440;2024-03-17T05:46:07;99077.91;;;1.95;94.86
73016;BME280;61893;50.074;14.440;2024-03-17T05:48:38;99100.25;;;1.86;95.73
73016;BME280;61893;50.074;14.440;2024-03-17T05:51:10;99098.13;;;1.93;95.57
73016;BME280;61893;50.074;14.440;2024-03-17T05:53:38;99099.66;;;1.97;94.23
73016;BME280;61893;50.074;14.440;2024-03-17T05:56:06;99100.06;;;2.05;94.09
73016;BME280;61893;50.074;14.440;2024-03-17T05:58:42;99103.97;;;2.14;93.60
73016;BME280;61893;50.074;14.440;2024-03-17T06:01:08;99115.06;;;2.19;93.43
73016;BME280;61893;50.074;14.440;2024-03-17T06:03:37;99123.97;;;2.32;92.33
73016;BME280;61893;50.074;14.440;2024-03-17T06:06:08;99123.69;;;2.53;91.87
73016;BME280;61893;50.074;14.440;2024-03-17T06:08:50;99120.06;;;3.44;86.69
73016;BME280;61893;50.074;14.440;2024-03-17T06:11:23;99121.97;;;4.66;81.19
73016;BME280;61893;50.074;14.440;2024-03-17T06:13:55;99125.59;;;5.18;76.42
73016;BME280;61893;50.074;14.440;2024-03-17T06:16:21;99124.56;;;5.59;73.80
73016;BME280;61893;50.074;14.440;2024-03-17T06:18:46;99129.44;;;7.11;69.32
73016;BME280;61893;50.074;14.440;2024-03-17T06:21:15;99128.47;;;7.70;64.57
73016;BME280;61893;50.074;14.440;2024-03-17T06:23:59;99123.38;;;8.34;62.50
73016;BME280;61893;50.074;14.440;2024-03-17T06:26:24;99130.03;;;8.72;60.38
73016;BME280;61893;50.074;14.440;2024-03-17T06:28:58;99135.88;;;9.19;58.06
73016;BME280;61893;50.074;14.440;2024-03-17T06:31:24;99139.28;;;9.10;58.63
73016;BME280;61893;50.074;14.440;2024-03-17T06:33:50;99142.09;;;9.08;58.47
73016;BME280;61893;50.074;14.440;2024-03-17T06:36:18;99135.66;;;9.74;54.49
73016;BME280;61893;50.074;14.440;2024-03-17T06:38:54;99140.72;;;8.49;59.60
73016;BME280;61893;50.074;14.440;2024-03-17T06:41:22;99143.88;;;10.32;54.58
73016;BME280;61893;50.074;14.440;2024-03-17T06:44:07;99148.75;;;10.27;53.75
73016;BME280;61893;50.074;14.440;2024-03-17T06:46:33;99150.81;;;9.83;54.66
73016;BME280;61893;50.074;14.440;2024-03-17T06:48:59;99161.34;;;9.42;55.43
73016;BME280;61893;50.074;14.440;2024-03-17T06:51:45;99155.19;;;11.03;51.26
73016;BME280;61893;50.074;14.440;2024-03-17T06:54:12;99153.47;;;11.51;49.44
73016;BME280;61893;50.074;14.440;2024-03-17T06:56:37;99148.59;;;11.27;50.42
73016;BME280;61893;50.074;14.440;2024-03-17T06:59:05;99153.94;;;11.84;47.96
73016;BME280;61893;50.074;14.440;2024-03-17T07:01:34;99161.41;;;11.80;48.88
73016;BME280;61893;50.074;14.440;2024-03-17T07:04:03;99165.75;;;12.28;47.50
73016;BME280;61893;50.074;14.440;2024-03-17T07:07:01;99157.06;;;12.54;45.53
73016;BME280;61893;50.074;14.440;2024-03-17T07:09:42;99163.03;;;11.34;48.37
73016;BME280;61893;50.074;14.440;2024-03-17T07:12:21;99172.22;;;13.17;44.97
73016;BME280;61893;50.074;14.440;2024-03-17T07:15:10;99172.50;;;14.36;41.89
73016;BME280;61893;50.074;14.440;2024-03-17T07:17:58;99169.78;;;13.67;43.76
73016;BME280;61893;50.074;14.440;2024-03-17T07:20:39;99174.19;;;13.15;43.91
73016;BME280;61893;50.074;14.440;2024-03-17T07:24:11;99176.31;;;12.93;45.30
73016;BME280;61893;50.074;14.440;2024-03-17T07:26:52;99174.84;;;12.63;46.17
73016;BME280;61893;50.074;14.440;2024-03-17T07:29:33;99178.41;;;12.54;45.47
73016;BME280;61893;50.074;14.440;2024-03-17T07:32:42;99175.34;;;14.00;42.75
73016;BME280;61893;50.074;14.440;2024-03-17T07:35:28;99181.41;;;12.87;44.47
73016;BME280;61893;50.074;14.440;2024-03-17T07:38:08;99181.00;;;11.99;47.40
73016;BME280;61893;50.074;14.440;2024-03-17T07:41:03;99181.19;;;14.30;41.92
73016;BME280;61893;50.074;14.440;2024-03-17T07:43:45;99174.69;;;14.32;42.26
73016;BME280;61893;50.074;14.440;2024-03-17T07:46:45;99182.69;;;15.83;38.59
73016;BME280;61893;50.074;14.440;2024-03-17T07:49:32;99173.56;;;16.48;36.92
73016;BME280;61893;50.074;14.440;2024-03-17T07:52:58;99166.94;;;16.27;37.35
73016;BME280;61893;50.074;14.440;2024-03-17T07:56:10;99178.84;;;16.80;36.17
73016;BME280;61893;50.074;14.440;2024-03-17T07:59:11;99184.03;;;17.51;35.12
73016;BME280;61893;50.074;14.440;2024-03-17T08:01:59;99180.78;;;17.18;35.58
73016;BME280;61893;50.074;14.440;2024-03-17T08:04:49;99176.78;;;16.51;35.61
73016;BME280;61893;50.074;14.440;2024-03-17T08:07:49;99171.00;;;18.30;33.17
73016;BME280;61893;50.074;14.440;2024-03-17T08:11:19;99175.47;;;19.04;32.60
73016;BME280;61893;50.074;14.440;2024-03-17T08:14:37;99169.16;;;19.40;31.69
73016;BME280;61893;50.074;14.440;2024-03-17T08:17:52;99174.84;;;18.87;31.88
73016;BME280;61893;50.074;14.440;2024-03-17T08:21:25;99171.47;;;18.49;32.80
73016;BME280;61893;50.074;14.440;2024-03-17T08:24:40;99163.47;;;18.26;32.70
73016;BME280;61893;50.074;14.440;2024-03-17T08:27:27;99165.81;;;19.59;31.18
73016;BME280;61893;50.074;14.440;2024-03-17T08:30:26;99158.38;;;18.01;32.85
73016;BME280;61893;50.074;14.440;2024-03-17T08:34:01;99168.09;;;17.03;33.71
73016;BME280;61893;50.074;14.440;2024-03-17T08:37:04;99160.56;;;12.54;42.12
73016;BME280;61893;50.074;14.440;2024-03-17T08:40:21;99159.44;;;12.47;43.18
73016;BME280;61893;50.074;14.440;2024-03-17T08:43:09;99158.06;;;16.18;36.22
73016;BME280;61893;50.074;14.440;2024-03-17T08:46:17;99155.13;;;17.68;34.13
73016;BME280;61893;50.074;14.440;2024-03-17T08:49:35;99155.06;;;16.13;35.41
73016;BME280;61893;50.074;14.440;2024-03-17T08:52:49;99155.94;;;13.98;38.98
73016;BME280;61893;50.074;14.440;2024-03-17T08:56:13;99152.16;;;15.43;36.48
73016;BME280;61893;50.074;14.440;2024-03-17T08:59:24;99146.63;;;15.61;36.47
73016;BME280;61893;50.074;14.440;2024-03-17T09:02:28;99138.75;;;14.94;37.43
73016;BME280;61893;50.074;14.440;2024-03-17T09:06:00;99134.75;;;14.47;39.32
73016;BME280;61893;50.074;14.440;2024-03-17T09:09:53;99127.19;;;14.34;38.84
73016;BME280;61893;50.074;14.440;2024-03-17T09:13:25;99126.63;;;13.88;39.42
73016;BME280;61893;50.074;14.440;2024-03-17T09:16:21;99122.81;;;15.74;35.65
73016;BME280;61893;50.074;14.440;2024-03-17T09:19:19;99124.53;;;16.14;35.23
73016;BME280;61893;50.074;14.440;2024-03-17T09:22:57;99115.84;;;17.44;33.33
73016;BME280;61893;50.074;14.440;2024-03-17T09:26:04;99114.09;;;15.55;35.83
73016;BME280;61893;50.074;14.440;2024-03-17T09:29:20;99112.41;;;13.62;38.15
73016;BME280;61893;50.074;14.440;2024-03-17T09:32:30;99118.66;;;15.14;36.57
73016;BME280;61893;50.074;14.440;2024-03-17T09:36:15;99113.22;;;14.73;37.21
73016;BME280;61893;50.074;14.440;2024-03-17T09:39:18;99110.56;;;14.23;38.33
73016;BME280;61893;50.074;14.440;2024-03-17T09:42:21;99108.56;;;14.83;36.90
73016;BME280;61893;50.074;14.440;2024-03-17T09:45:28;99105.09;;;13.64;38.91
73016;BME280;61893;50.074;14.440;2024-03-17T09:48:01;99100.00;;;12.73;40.34
73016;BME280;61893;50.074;14.440;2024-03-17T09:50:34;99105.56;;;12.61;40.88
73016;BME280;61893;50.074;14.440;2024-03-17T09:53:16;99101.03;;;12.44;39.96
73016;BME280;61893;50.074;14.440;2024-03-17T09:55:46;99104.34;;;12.10;40.12
73016;BME280;61893;50.074;14.440;2024-03-17T09:58:16;99097.81;;;11.95;41.14
73016;BME280;61893;50.074;14.440;2024-03-17T10:00:50;99110.31;;;11.85;41.54
73016;BME280;61893;50.074;14.440;2024-03-17T10:03:47;99095.03;;;11.77;41.26
73016;BME280;61893;50.074;14.440;2024-03-17T10:06:19;99091.19;;;11.62;42.00
73016;BME280;61893;50.074;14.440;2024-03-17T10:08:56;99090.44;;;11.22;42.26
73016;BME280;61893;50.074;14.440;2024-03-17T10:12:03;99082.03;;;10.98;43.51
73016;BME280;61893;50.074;14.440;2024-03-17T10:15:19;99087.09;;;10.91;43.30
73016;BME280;61893;50.074;14.440;2024-03-17T10:26:13;99077.84;;;11.05;43.45
73016;BME280;61893;50.074;14.440;2024-03-17T10:28:43;99093.53;;;10.89;43.58
73016;BME280;61893;50.074;14.440;2024-03-17T10:31:09;99085.97;;;10.94;43.54
73016;BME280;61893;50.074;14.440;2024-03-17T10:33:36;99083.59;;;10.71;44.03
73016;BME280;61893;50.074;14.440;2024-03-17T10:36:02;99088.78;;;11.02;43.26
73016;BME280;61893;50.074;14.440;2024-03-17T10:38:34;99093.53;;;10.98;43.61
73016;BME280;61893;50.074;14.440;2024-03-17T10:41:00;99089.44;;;11.04;45.12
73016;BME280;61893;50.074;14.440;2024-03-17T10:43:27;99080.53;;;10.76;45.85
73016;BME280;61893;50.074;14.440;2024-03-17T10:45:54;99086.22;;;11.10;45.93
73016;BME280;61893;50.074;14.440;2024-03-17T10:50:53;99087.28;;;11.84;44.47
73016;BME280;61893;50.074;14.440;2024-03-17T10:53:26;99085.38;;;12.13;43.19
73016;BME280;61893;50.074;14.440;2024-03-17T10:56:03;99088.50;;;12.27;41.90
73016;BME280;61893;50.074;14.440;2024-03-17T10:58:37;99093.63;;;12.38;41.18
73016;BME280;61893;50.074;14.440;2024-03-17T11:01:04;99081.81;;;12.23;42.06
73016;BME280;61893;50.074;14.440;2024-03-17T11:03:35;99087.47;;;12.10;41.95
73016;BME280;61893;50.074;14.440;2024-03-17T11:06:03;99081.31;;;11.72;42.15
73016;BME280;61893;50.074;14.440;2024-03-17T11:08:32;99079.13;;;11.58;42.49
73016;BME280;61893;50.074;14.440;2024-03-17T11:10:59;99078.00;;;11.98;42.40
73016;BME280;61893;50.074;14.440;2024-03-17T11:13:29;99088.19;;;12.12;41.16
73016;BME280;61893;50.074;14.440;2024-03-17T11:16:03;99073.56;;;11.32;42.68
73016;BME280;61893;50.074;14.440;2024-03-17T11:18:44;99071.44;;;11.45;42.81
73016;BME280;61893;50.074;14.440;2024-03-17T11:28:46;99070.13;;;11.59;42.62
73016;BME280;61893;50.074;14.440;2024-03-17T11:34:37;99067.78;;;11.46;42.83
73016;BME280;61893;50.074;14.440;2024-03-17T11:37:40;99062.72;;;10.86;43.72
73016;BME280;61893;50.074;14.440;2024-03-17T11:40:24;99053.13;;;11.69;42.52
73016;BME280;61893;50.074;14.440;2024-03-17T11:43:03;99048.91;;;11.67;41.69
73016;BME280;61893;50.074;14.440;2024-03-17T11:45:32;99047.34;;;11.74;41.07
73016;BME280;61893;50.074;14.440;2024-03-17T11:48:05;99035.56;;;11.30;41.15
73016;BME280;61893;50.074;14.440;2024-03-17T11:50:37;99039.19;;;11.76;41.25
73016;BME280;61893;50.074;14.440;2024-03-17T11:53:09;99029.75;;;11.16;41.98
73016;BME280;61893;50.074;14.440;2024-03-17T11:55:36;99031.56;;;11.53;41.31
73016;BME280;61893;50.074;14.440;2024-03-17T11:58:03;99038.34;;;11.47;41.05
73016;BME280;61893;50.074;14.440;2024-03-17T12:00:31;99027.53;;;11.49;40.50
73016;BME280;61893;50.074;14.440;2024-03-17T12:02:57;99026.03;;;11.74;40.97
73016;BME280;61893;50.074;14.440;2024-03-17T12:05:25;99026.84;;;11.75;40.94
73016;BME280;61893;50.074;14.440;2024-03-17T12:07:57;99027.19;;;11.99;41.23
73016;BME280;61893;50.074;14.440;2024-03-17T12:10:24;99033.91;;;12.03;40.42
73016;BME280;61893;50.074;14.440;2024-03-17T12:13:01;99023.16;;;11.01;41.86
73016;BME280;61893;50.074;14.440;2024-03-17T12:15:31;99020.41;;;11.77;41.04
73016;BME280;61893;50.074;14.440;2024-03-17T12:17:58;99016.72;;;11.78;41.05
73016;BME280;61893;50.074;14.440;2024-03-17T12:20:35;99017.19;;;12.01;40.13
73016;BME280;61893;50.074;14.440;2024-03-17T12:23:11;99015.38;;;12.02;40.37
73016;BME280;61893;50.074;14.440;2024-03-17T12:25:47;99017.56;;;12.34;40.42
73016;BME280;61893;50.074;14.440;2024-03-17T12:28:16;99018.53;;;12.33;40.83
73016;BME280;61893;50.074;14.440;2024-03-17T12:30:44;99014.31;;;12.12;41.54
73016;BME280;61893;50.074;14.440;2024-03-17T12:33:49;99010.09;;;11.92;41.61
73016;BME280;61893;50.074;14.440;2024-03-17T12:36:30;99008.91;;;12.04;41.81
73016;BME280;61893;50.074;14.440;2024-03-17T12:39:29;98996.47;;;12.13;41.20
73016;BME280;61893;50.074;14.440;2024-03-17T12:42:31;98994.81;;;12.12;40.10
73016;BME280;61893;50.074;14.440;2024-03-17T12:45:20;98987.47;;;11.68;41.36
73016;BME280;61893;50.074;14.440;2024-03-17T12:48:03;98991.44;;;11.92;40.62
73016;BME280;61893;50.074;14.440;2024-03-17T12:51:01;98989.63;;;11.83;40.42
73016;BME280;61893;50.074;14.440;2024-03-17T12:54:23;98975.75;;;11.52;40.52
73016;BME280;61893;50.074;14.440;2024-03-17T12:57:51;98976.31;;;11.27;41.25
73016;BME280;61893;50.074;14.440;2024-03-17T13:03:46;98968.19;;;11.47;40.80
73016;BME280;61893;50.074;14.440;2024-03-17T13:06:26;98969.56;;;11.23;40.46
73016;BME280;61893;50.074;14.440;2024-03-17T13:09:07;98961.84;;;11.58;40.36
73016;BME280;61893;50.074;14.440;2024-03-17T13:11:39;98964.06;;;11.90;39.59
73016;BME280;61893;50.074;14.440;2024-03-17T13:14:06;98959.00;;;11.97;38.71
73016;BME280;61893;50.074;14.440;2024-03-17T13:17:14;98953.50;;;11.70;37.70
73016;BME280;61893;50.074;14.440;2024-03-17T13:20:26;98950.00;;;11.70;38.49
73016;BME280;61893;50.074;14.440;2024-03-17T13:24:00;98948.47;;;11.67;38.66
73016;BME280;61893;50.074;14.440;2024-03-17T13:27:14;98948.97;;;11.16;39.36
73016;BME280;61893;50.074;14.440;2024-03-17T13:30:35;98943.81;;;11.14;39.44
73016;BME280;61893;50.074;14.440;2024-03-17T13:34:03;98936.88;;;11.31;39.93
73016;BME280;61893;50.074;14.440;2024-03-17T13:37:22;98939.75;;;11.47;39.23
73016;BME280;61893;50.074;14.440;2024-03-17T13:40:44;98936.50;;;11.54;39.22
73016;BME280;61893;50.074;14.440;2024-03-17T13:44:15;98937.44;;;11.62;38.75
73016;BME280;61893;50.074;14.440;2024-03-17T13:47:11;98937.34;;;11.72;39.45
73016;BME280;61893;50.074;14.440;2024-03-17T13:50:19;98941.56;;;11.75;38.14
73016;BME280;61893;50.074;14.440;2024-03-17T13:53:45;98936.31;;;11.83;38.06
73016;BME280;61893;50.074;14.440;2024-03-17T13:57:14;98924.47;;;11.67;39.01
73016;BME280;61893;50.074;14.440;2024-03-17T13:59:57;98922.16;;;11.55;39.17
73016;BME280;61893;50.074;14.440;2024-03-17T14:02:57;98914.31;;;11.53;39.40
73016;BME280;61893;50.074;14.440;2024-03-17T14:05:35;98914.69;;;11.40;39.35
73016;BME280;61893;50.074;14.440;2024-03-17T14:08:04;98903.81;;;11.52;39.04
73016;BME280;61893;50.074;14.440;2024-03-17T14:13:35;98907.31;;;11.52;38.94
73016;BME280;61893;50.074;14.440;2024-03-17T14:16:25;98915.78;;;11.47;38.99
73016;BME280;61893;50.074;14.440;2024-03-17T14:18:55;98912.00;;;11.40;39.51
73016;BME280;61893;50.074;14.440;2024-03-17T14:21:23;98909.25;;;11.32;38.79
73016;BME280;61893;50.074;14.440;2024-03-17T14:24:08;98902.34;;;11.12;39.36
73016;BME280;61893;50.074;14.440;2024-03-17T14:26:40;98898.66;;;11.22;39.47
73016;BME280;61893;50.074;14.440;2024-03-17T14:29:13;98901.72;;;11.27;39.74
73016;BME280;61893;50.074;14.440;2024-03-17T14:31:48;98895.16;;;11.22;40.11
73016;BME280;61893;50.074;14.440;2024-03-17T14:34:23;98903.91;;;11.32;39.24
73016;BME280;61893;50.074;14.440;2024-03-17T14:37:06;98892.38;;;11.14;40.03
73016;BME280;61893;50.074;14.440;2024-03-17T14:39:53;98904.63;;;10.97;40.39
73016;BME280;61893;50.074;14.440;2024-03-17T14:43:02;98890.75;;;10.56;41.48
73016;BME280;61893;50.074;14.440;2024-03-17T14:45:48;98896.00;;;10.75;41.25
73016;BME280;61893;50.074;14.440;2024-03-17T14:48:19;98896.41;;;10.90;41.66
73016;BME280;61893;50.074;14.440;2024-03-17T14:50:49;98887.53;;;10.99;41.49
73016;BME280;61893;50.074;14.440;2024-03-17T14:53:31;98889.84;;;11.12;41.23